Time;durP1;ratioP1;P1;durP2;ratioP2;P2;SDS_P1;SDS_P2;PMS_P1;PMS_P2;Temp;Humidity;BMP_temperature;BMP_pressure;BME280_temperature;BME280_humidity;BME280_pressure;Samples;Min_cycle;Max_cycle;Signal;HPM_P1;HPM_P2
2022/06/12 00:08:28;;;;;;;2.45;1.00;;;;;;;18.21;77.94;101910.28;20810487;28;20096;-78
2022/06/12 00:18:30;;;;;;;2.97;1.17;;;;;;;17.80;77.55;101842.28;20822705;28;20045;-78
2022/06/12 00:28:33;;;;;;;2.83;1.00;;;;;;;18.16;77.44;101899.84;20808807;28;20418;-78
2022/06/12 00:38:34;;;;;;;3.40;1.20;;;;;;;18.19;77.33;101909.53;20806459;28;20061;-78
2022/06/12 00:48:37;;;;;;;2.88;1.15;;;;;;;18.19;77.26;101896.91;20807623;28;20051;-78
2022/06/12 00:58:44;;;;;;;2.97;1.00;;;;;;;18.08;77.25;101873.44;20792492;28;20052;-78
2022/06/12 01:08:46;;;;;;;1.80;0.90;;;;;;;18.17;76.99;101887.25;20806068;28;20569;-78
2022/06/12 01:18:53;;;;;;;3.85;1.00;;;;;;;18.15;77.09;101892.72;20802611;28;20051;-78
2022/06/12 01:29:04;;;;;;;2.70;1.10;;;;;;;18.15;76.94;101878.41;20804562;28;20498;-78
2022/06/12 01:39:12;;;;;;;2.83;1.10;;;;;;;18.15;76.73;101879.25;20802662;28;20128;-78
2022/06/12 01:49:28;;;;;;;2.38;1.05;;;;;;;18.10;76.57;101863.41;20804371;28;20049;-78
2022/06/12 01:59:41;;;;;;;2.33;0.90;;;;;;;18.14;76.30;101868.59;20801983;28;20060;-78
2022/06/12 02:09:51;;;;;;;1.40;0.95;;;;;;;18.12;76.22;101863.31;20801300;28;20057;-78
2022/06/12 02:19:53;;;;;;;2.25;1.27;;;;;;;18.12;76.23;101857.94;20881729;28;20067;-78
2022/06/12 02:30:01;;;;;;;2.15;0.75;;;;;;;18.05;75.94;101862.06;20882461;28;20489;-78
2022/06/12 02:40:12;;;;;;;2.47;0.90;;;;;;;17.85;75.95;101809.63;20880470;28;20045;-77
2022/06/12 02:50:16;;;;;;;2.42;1.00;;;;;;;18.03;75.58;101848.69;20879565;28;20068;-78
2022/06/12 03:00:22;;;;;;;2.03;1.10;;;;;;;18.08;75.42;101854.59;20863551;28;20045;-78
2022/06/12 03:10:28;;;;;;;1.65;1.00;;;;;;;18.07;75.21;101842.09;20840322;28;20034;-78
2022/06/12 03:20:42;;;;;;;2.15;1.02;;;;;;;18.08;75.30;101857.28;20878195;28;20061;-78
2022/06/12 03:30:56;;;;;;;2.00;0.90;;;;;;;17.92;75.19;101818.97;20877961;28;20052;-78
2022/06/12 03:41:14;;;;;;;1.97;1.03;;;;;;;18.07;74.95;101854.72;20874589;28;20052;-78
2022/06/12 03:51:43;;;;;;;1.27;0.70;;;;;;;18.05;74.70;101846.72;20810360;28;20050;-78
2022/06/12 04:01:46;;;;;;;2.13;1.02;;;;;;;17.67;74.85;101783.06;20756127;28;20042;-77
2022/06/12 04:11:56;;;;;;;1.73;0.82;;;;;;;17.90;74.56;101818.22;20784071;28;20544;-77
2022/06/12 04:22:05;;;;;;;2.45;0.77;;;;;;;17.88;73.72;101812.09;20799495;28;20132;-77
2022/06/12 04:32:08;;;;;;;2.40;0.88;;;;;;;17.93;73.25;101816.16;20802817;28;20116;-78
2022/06/12 04:42:12;;;;;;;6.43;1.20;;;;;;;17.50;73.52;101755.56;20852534;28;20636;-78
2022/06/12 04:52:13;;;;;;;2.92;1.02;;;;;;;18.08;77.28;101841.13;20801676;28;20103;-78
2022/06/12 05:02:15;;;;;;;2.60;0.95;;;;;;;18.14;76.98;101852.44;20903437;28;20114;-78
2022/06/12 05:12:17;;;;;;;3.40;1.33;;;;;;;18.04;75.93;101823.47;20822060;28;20056;-78
2022/06/12 05:22:22;;;;;;;3.78;1.23;;;;;;;18.20;75.04;101835.81;20785890;28;20052;-78
2022/06/12 05:32:23;;;;;;;5.63;1.27;;;;;;;18.05;74.50;101822.47;20786988;28;20068;-78
2022/06/12 05:42:25;;;;;;;3.65;1.15;;;;;;;17.96;75.30;101812.38;20781025;28;20069;-78
2022/06/12 05:52:27;;;;;;;2.28;1.02;;;;;;;18.03;75.01;101827.13;20787343;28;20045;-79
2022/06/12 06:02:28;;;;;;;3.08;1.10;;;;;;;18.00;75.07;101829.19;20815168;28;20067;-79
2022/06/12 06:12:30;;;;;;;2.28;1.10;;;;;;;18.13;75.10;101858.81;20766795;28;20072;-79
2022/06/12 06:22:32;;;;;;;1.98;0.93;;;;;;;18.11;75.38;101859.75;20720053;28;20387;-79
2022/06/12 06:32:34;;;;;;;3.22;1.30;;;;;;;18.11;75.57;101865.13;20719164;28;20046;-79
2022/06/12 06:42:35;;;;;;;3.50;1.27;;;;;;;18.13;75.68;101877.66;20715183;28;20045;-79
2022/06/12 06:52:37;;;;;;;3.25;1.08;;;;;;;18.11;76.04;101886.69;20715563;28;20562;-80
2022/06/12 07:02:39;;;;;;;4.20;1.30;;;;;;;18.00;75.97;101864.19;20728836;28;20505;-79
2022/06/12 07:12:40;;;;;;;3.33;1.10;;;;;;;18.11;76.42;101883.16;20810918;28;20057;-79
2022/06/12 07:22:42;;;;;;;3.80;1.55;;;;;;;18.21;76.60;101880.66;20797194;28;20061;-79
2022/06/12 07:32:44;;;;;;;2.88;1.20;;;;;;;18.11;76.71;101851.66;20795658;28;20095;-79
2022/06/12 07:42:46;;;;;;;3.58;1.35;;;;;;;18.43;76.47;101892.50;20797093;28;20080;-79
2022/06/12 07:52:48;;;;;;;2.22;1.27;;;;;;;18.29;76.87;101856.66;20802594;28;20046;-79
2022/06/12 08:02:49;;;;;;;2.97;1.20;;;;;;;18.52;76.88;101889.09;20810862;28;20076;-79
2022/06/12 08:12:52;;;;;;;3.83;1.63;;;;;;;18.55;76.99;101878.94;20810915;28;20092;-79
2022/06/12 08:22:58;;;;;;;2.53;1.23;;;;;;;18.54;77.21;101896.09;20810059;28;20540;-79
2022/06/12 08:33:00;;;;;;;2.50;1.30;;;;;;;18.46;77.46;101881.47;20889789;28;20051;-79
2022/06/12 08:43:11;;;;;;;3.72;1.42;;;;;;;18.47;77.82;101872.41;20888759;28;20056;-79
2022/06/12 08:53:30;;;;;;;4.72;1.30;;;;;;;18.44;78.25;101878.91;20889841;28;20052;-78
2022/06/12 09:03:37;;;;;;;2.85;1.20;;;;;;;18.49;78.14;101859.66;20840071;28;20049;-79
2022/06/12 09:13:50;;;;;;;3.53;1.30;;;;;;;18.50;78.22;101851.47;20868961;28;20599;-79
2022/06/12 09:24:11;;;;;;;4.22;1.48;;;;;;;18.48;78.38;101848.03;20838206;28;20041;-79
2022/06/12 09:34:31;;;;;;;3.25;1.55;;;;;;;18.47;78.56;101829.28;20886617;28;20045;-79
2022/06/12 09:44:39;;;;;;;1.83;0.95;;;;;;;18.46;78.58;101827.56;20805119;28;20140;-79
2022/06/12 09:55:12;;;;;;;2.95;1.25;;;;;;;18.44;78.58;101818.72;20781492;28;20048;-77
2022/06/12 10:05:19;;;;;;;2.97;1.17;;;;;;;18.46;78.65;101814.06;20763424;28;20735;-77
2022/06/12 10:15:32;;;;;;;4.00;1.35;;;;;;;18.30;78.66;101774.81;20773434;28;20053;-77
2022/06/12 10:25:44;;;;;;;3.72;1.35;;;;;;;18.21;78.45;101764.75;20875686;28;20048;-78
2022/06/12 10:35:47;;;;;;;2.85;1.20;;;;;;;18.45;78.27;101796.19;20829371;28;20046;-78
2022/06/12 10:46:16;;;;;;;4.18;1.17;;;;;;;18.44;77.99;101806.13;20775661;28;20696;-77
2022/06/12 10:56:27;;;;;;;3.20;1.25;;;;;;;18.44;77.91;101805.25;20764745;28;20057;-78
2022/06/12 11:06:35;;;;;;;3.15;1.27;;;;;;;18.44;77.66;101808.81;20773913;28;20057;-77
2022/06/12 11:16:42;;;;;;;2.28;1.20;;;;;;;18.44;77.59;101802.53;20778304;28;20139;-77
2022/06/12 11:27:15;;;;;;;3.97;1.35;;;;;;;18.43;77.37;101814.31;20781556;28;20049;-77
2022/06/12 11:37:44;;;;;;;1.95;1.10;;;;;;;18.43;77.20;101820.56;20791115;28;20067;-77
2022/06/12 11:48:09;;;;;;;2.75;1.25;;;;;;;18.38;77.57;101802.03;20800763;28;21036;-77
2022/06/12 11:58:17;;;;;;;8.13;1.37;;;;;;;18.52;77.83;101798.28;20793071;28;20049;-78
2022/06/12 12:08:48;;;;;;;4.13;1.27;;;;;;;18.33;76.67;101760.22;20814243;28;20304;-78
2022/06/12 12:18:57;;;;;;;3.05;1.10;;;;;;;18.64;76.40;101804.56;20776539;28;20124;-77
2022/06/12 12:29:02;;;;;;;3.05;1.15;;;;;;;18.69;76.05;101804.19;20851215;28;20040;-78
2022/06/12 12:49:34;;;;;;;4.03;1.40;;;;;;;18.72;75.44;101793.16;20808340;28;19925;-77
2022/06/12 12:59:48;;;;;;;1.75;1.20;;;;;;;18.75;75.13;101790.22;20865602;28;20377;-77
2022/06/12 13:10:10;;;;;;;3.13;1.20;;;;;;;18.76;74.86;101805.44;20756447;28;20107;-80
2022/06/12 13:20:30;;;;;;;2.15;0.98;;;;;;;18.61;74.49;101769.75;20770243;28;20041;-79
2022/06/12 13:30:39;;;;;;;2.88;1.33;;;;;;;18.75;74.83;101805.56;20786070;28;20056;-79
2022/06/12 13:40:41;;;;;;;2.55;1.25;;;;;;;18.38;74.70;101748.13;20800543;28;20049;-79
2022/06/12 13:50:50;;;;;;;2.47;1.00;;;;;;;18.39;74.33;101754.41;20772841;28;20476;-78
2022/06/12 14:00:58;;;;;;;1.88;1.40;;;;;;;18.61;74.49;101780.53;20771995;28;20141;-80
2022/06/12 14:11:00;;;;;;;2.05;1.15;;;;;;;18.59;74.36;101769.03;20818359;28;20598;-80
2022/06/12 14:21:22;;;;;;;2.50;1.23;;;;;;;18.59;74.39;101785.19;20849340;28;20048;-80
2022/06/12 14:31:31;;;;;;;2.15;1.40;;;;;;;18.48;74.46;101760.88;20842997;28;20068;-80
2022/06/12 14:41:33;;;;;;;1.77;1.02;;;;;;;18.55;74.37;101776.47;20784228;28;20053;-80
2022/06/12 14:51:34;;;;;;;1.55;1.05;;;;;;;18.55;74.30;101768.38;20847266;28;20123;-79
2022/06/12 15:01:36;;;;;;;2.25;1.00;;;;;;;18.53;74.38;101764.06;20844704;28;20190;-79
2022/06/12 15:11:38;;;;;;;2.80;1.10;;;;;;;18.48;74.03;101767.16;20763864;28;20511;-79
2022/06/12 15:21:42;;;;;;;2.45;1.15;;;;;;;18.50;74.09;101772.41;20776218;28;20053;-79
2022/06/12 15:31:44;;;;;;;2.55;1.23;;;;;;;18.50;74.04;101767.88;20798266;28;20488;-79
2022/06/12 15:41:57;;;;;;;2.53;1.10;;;;;;;18.33;74.11;101752.16;20819960;28;20080;-79
2022/06/12 15:52:02;;;;;;;3.25;1.20;;;;;;;18.48;74.18;101760.88;20843299;28;20068;-79
2022/06/12 16:02:15;;;;;;;3.77;1.67;;;;;;;18.03;74.55;101676.25;20825892;28;20042;-79
2022/06/12 16:12:17;;;;;;;2.22;1.38;;;;;;;18.47;74.58;101749.25;20854295;28;20137;-79
2022/06/12 16:22:21;;;;;;;2.33;1.25;;;;;;;18.48;74.51;101742.88;20817915;28;20049;-80
2022/06/12 16:32:23;;;;;;;2.90;1.40;;;;;;;18.47;74.56;101743.88;20780560;28;20053;-80
2022/06/12 16:42:25;;;;;;;3.42;1.50;;;;;;;18.50;74.73;101743.63;20795929;28;20045;-80
2022/06/12 16:52:27;;;;;;;3.28;1.50;;;;;;;18.51;74.70;101749.84;20803372;28;20045;-80
2022/06/12 17:02:30;;;;;;;3.58;1.70;;;;;;;18.47;74.75;101740.28;20825980;28;20056;-80
2022/06/12 17:12:32;;;;;;;3.83;1.63;;;;;;;18.39;74.75;101730.13;20798473;28;20080;-79
2022/06/12 17:22:35;;;;;;;3.00;1.40;;;;;;;18.49;74.71;101754.50;20824551;28;20045;-79
2022/06/12 17:32:37;;;;;;;3.05;1.35;;;;;;;18.57;74.82;101760.19;20786926;28;20072;-77
2022/06/12 17:42:39;;;;;;;2.80;1.70;;;;;;;18.53;75.09;101754.16;20802037;28;20045;-78
2022/06/12 17:52:40;;;;;;;3.58;1.70;;;;;;;18.52;75.07;101748.88;20786410;28;20124;-78
2022/06/12 18:02:43;;;;;;;3.42;1.77;;;;;;;18.50;74.98;101745.44;20801953;28;20623;-78
2022/06/12 18:12:45;;;;;;;2.85;1.67;;;;;;;18.46;74.98;101738.56;20803114;28;20045;-78
2022/06/12 18:22:46;;;;;;;2.72;1.67;;;;;;;18.46;74.83;101744.84;20801881;28;20048;-78
2022/06/12 18:32:48;;;;;;;3.38;1.83;;;;;;;18.45;75.13;101744.94;20799517;28;20076;-78
2022/06/12 18:42:49;;;;;;;2.40;1.40;;;;;;;18.45;75.01;101758.44;20799263;28;20379;-78
2022/06/12 18:52:51;;;;;;;4.05;1.83;;;;;;;18.26;75.22;101730.22;20798228;28;20053;-78
2022/06/12 19:02:52;;;;;;;2.40;1.70;;;;;;;18.40;75.12;101759.66;20814188;28;20041;-78
2022/06/12 19:12:54;;;;;;;2.55;1.63;;;;;;;18.34;75.18;101748.47;20797317;28;20050;-78
2022/06/12 19:22:56;;;;;;;3.15;1.63;;;;;;;18.36;75.24;101768.94;20796743;28;20509;-78
2022/06/12 19:32:58;;;;;;;3.70;1.63;;;;;;;18.29;75.25;101759.63;20797646;28;20038;-78
2022/06/12 19:43:00;;;;;;;4.20;1.60;;;;;;;18.36;75.04;101768.94;20790708;28;20060;-79
2022/06/12 19:53:03;;;;;;;2.28;1.42;;;;;;;18.36;74.81;101779.72;20792114;28;20107;-78
2022/06/12 20:03:04;;;;;;;4.15;2.15;;;;;;;18.27;75.10;101767.81;20811899;28;20050;-78
2022/06/12 20:13:06;;;;;;;3.17;1.80;;;;;;;18.34;75.01;101781.69;20810742;28;20038;-77
2022/06/12 20:23:08;;;;;;;2.55;1.50;;;;;;;18.33;75.21;101785.38;20810792;28;20049;-78
2022/06/12 20:33:09;;;;;;;2.20;1.27;;;;;;;18.34;75.12;101775.44;20812415;28;20505;-78
2022/06/12 20:43:13;;;;;;;2.05;1.40;;;;;;;18.34;75.15;101780.81;20800973;28;20042;-78
2022/06/12 20:53:15;;;;;;;3.25;1.50;;;;;;;18.32;74.96;101780.94;20808197;28;20098;-78
2022/06/12 21:03:17;;;;;;;2.35;1.50;;;;;;;18.30;75.10;101777.50;20805347;28;20057;-78
2022/06/12 21:13:20;;;;;;;2.75;1.60;;;;;;;18.20;74.78;101752.25;20805781;28;20497;-78
2022/06/12 21:23:21;;;;;;;2.30;1.42;;;;;;;18.30;74.59;101744.28;20805093;28;20053;-78
2022/06/12 21:33:23;;;;;;;3.50;1.80;;;;;;;18.11;74.43;101714.22;20802857;28;20060;-78
2022/06/12 21:43:25;;;;;;;2.42;1.55;;;;;;;17.88;74.04;101667.47;20801133;28;20502;-78
2022/06/12 22:03:47;;;;;;;3.05;1.70;;;;;;;18.25;74.39;101723.09;20884233;28;20060;-78
2022/06/12 22:13:48;;;;;;;3.08;1.60;;;;;;;18.14;74.40;101704.22;20884106;28;20110;-78
2022/06/12 22:23:50;;;;;;;3.33;1.70;;;;;;;18.11;74.14;101692.66;20883590;28;20501;-78
2022/06/12 22:33:52;;;;;;;2.05;1.45;;;;;;;18.19;74.38;101704.72;20882989;28;20056;-78
2022/06/12 22:43:53;;;;;;;2.17;1.30;;;;;;;18.16;74.34;101696.88;20829699;28;20449;-78
2022/06/12 22:53:55;;;;;;;3.42;1.75;;;;;;;18.14;74.26;101685.34;20797297;28;20045;-78
2022/06/12 23:03:57;;;;;;;3.20;1.83;;;;;;;18.14;74.23;101688.06;20797506;28;20111;-78
2022/06/12 23:13:58;;;;;;;3.13;1.75;;;;;;;18.21;74.37;101698.22;20798089;28;20083;-78
2022/06/12 23:24:00;;;;;;;2.53;1.70;;;;;;;18.20;74.38;101692.97;20803397;28;20403;-78
2022/06/12 23:34:01;;;;;;;2.78;1.40;;;;;;;18.19;74.21;101688.56;20814899;28;20049;-78
2022/06/12 23:44:03;;;;;;;3.92;1.70;;;;;;;18.20;74.09;101682.19;20812653;28;20123;-78
2022/06/12 23:54:05;;;;;;;2.58;1.65;;;;;;;18.20;74.08;101676.78;20810885;28;20119;-78
